• Join FlightAware (Why Join?)
  • Login
  • US Flag 
09:07PM EDT


 

Airport Tracker/Info


-or-


 

Live Flight TrackerFlight Track Log ✈ UAL582 ✈ 13-Jul-2013 ✈ KLAX - KIAH

Flight Track Log - Related Links

Times and Time Zones

All times are in EDT time to prevent confusion due to time zone crossing. See the UAL582 flight status page for this flight to view local times or setup timezone preferences in your user account.

Time Position Orientation Groundspeed Altitude Reporting Facility
EDT Latitude Longitude Course Direction KTS MPH feet Rate Location/Type
12:44PM 33.9167 -118.4667 90° East 206 237 1,800  Level Southern California TRACON
12:45PM 33.8967 -118.5039 237° Southwest 231 266 3,100 2,460 Climbing Los Angeles Center
12:46PM 33.7872 -118.6496 132° Southeast  Level FlightAware Approximate
12:46PM 33.8403 -118.5761 227° Southwest 280 322 6,000  Level Los Angeles Center
12:47PM 33.7096 -118.5495 134° Southeast  Level FlightAware Approximate
12:47PM 33.7661 -118.5836 185° South 296 341 8,600  Level Los Angeles Center
12:48PM 33.6684 -118.4273 101° East  Level FlightAware Approximate
12:48PM 33.6886 -118.5133 143° Southeast 293 337 12,100  Level Los Angeles Center
12:49PM 33.6333 -118.3000 90° East  Level FlightAware Approximate
12:49PM 33.6567 -118.4014 109° East 331 381 13,900  Level Los Angeles Center
12:50PM 33.6333 -118.1633 90° East  Level FlightAware Approximate
12:50PM 33.6542 -118.2869 91° East 350 403 16,100  Level Los Angeles Center
12:51PM 33.6536 -118.1686 90° East 360 414 18,200 1,380 Climbing Los Angeles Center
12:52PM 33.6819 -118.0458 74° East 396 456 19,000 480 Climbing Los Angeles Center
12:54PM 33.6939 -117.8778 85° East 431 496 19,200 720 Climbing Los Angeles Center
12:55PM 33.6894 -117.7328 92° East 436 502 20,700 1,740 Climbing Los Angeles Center
12:56PM 33.6839 -117.5614 92° East 430 495 23,200 1,680 Climbing Los Angeles Center
12:57PM 33.6786 -117.4183 92° East 430 495 24,300 1,020 Climbing Los Angeles Center
12:58PM 33.6439 -117.2808 107° East 437 503 25,400 960 Climbing Los Angeles Center
12:59PM 33.5717 -117.1378 121° Southeast 438 504 26,400 960 Climbing Los Angeles Center
01:00PM 33.5400 -116.9933 105° East 451 519 27,400 900 Climbing Los Angeles Center
01:01PM 33.5203 -116.8389 99° East 464 534 28,300 840 Climbing Los Angeles Center
01:02PM 33.5017 -116.6836 98° East 469 540 29,200 900 Climbing Los Angeles Center
01:03PM 33.4814 -116.5281 99° East 470 541 30,200 1,020 Climbing Los Angeles Center
01:04PM 33.4619 -116.3747 99° East 466 536 31,400 1,140 Climbing Los Angeles Center
01:05PM 33.4372 -116.1883 99° East 467 537 32,600 960 Climbing Los Angeles Center
01:06PM 33.4161 -116.0350 99° East 467 537 33,400 720 Climbing Los Angeles Center
01:07PM 33.3961 -115.8803 99° East 469 540 34,200 720 Climbing Los Angeles Center
01:08PM 33.3739 -115.7267 100° East 469 540 35,000 300 Climbing Los Angeles Center
01:09PM 33.3544 -115.5781 99° East 457 526 34,900 -60 Descending Los Angeles Center
01:10PM 33.3331 -115.4289 100° East 454 522 34,900  Level Los Angeles Center
01:11PM 33.3083 -115.2503 99° East 454 522 34,900  Level Los Angeles Center
01:12PM 33.2878 -115.1031 99° East 452 520 34,900  Level Los Angeles Center
01:13PM 33.2672 -114.9539 99° East 453 521 34,900  Level Los Angeles Center
01:14PM 33.2461 -114.8039 100° East 457 526 34,900  Level Los Angeles Center
01:15PM 33.2244 -114.6553 100° East 455 524 35,000  Climbing Los Angeles Center
01:16PM 33.2042 -114.5050 99° East 457 526 35,000  Level Los Angeles Center
01:18PM 33.1758 -114.3264 101° East 456 525 35,000 -60 Level Los Angeles Center
01:19PM 33.1556 -114.1575 98° East 454 522 34,900  Descending Albuquerque Center
01:20PM 33.1344 -114.0061 99° East 458 527 35,000  Climbing Albuquerque Center
01:21PM 33.1133 -113.8561 99° East 459 528 35,000  Level Albuquerque Center
01:22PM 33.0928 -113.7047 99° East 462 532 35,000  Level Albuquerque Center
01:23PM 33.0714 -113.5561 100° East 458 527 35,000 -60 Level Albuquerque Center
01:24PM 33.0508 -113.4069 99° East 456 525 34,900  Descending Albuquerque Center
01:25PM 33.0247 -113.2275 100° East 457 526 35,000  Climbing Albuquerque Center
01:26PM 33.0031 -113.0792 100° East 455 524 35,000 -60 Level Albuquerque Center
01:27PM 32.9808 -112.9317 100° East 451 519 34,900  Descending Albuquerque Center
01:28PM 32.9592 -112.7819 100° East 454 522 35,000  Climbing Albuquerque Center
01:29PM 32.9367 -112.6322 100° East 456 525 35,000  Level Albuquerque Center
01:30PM 32.9142 -112.4844 100° East 453 521 35,000 -60 Level Albuquerque Center
01:31PM 32.8914 -112.3364 100° East 454 522 34,900  Descending Albuquerque Center
01:32PM 32.8694 -112.1878 100° East 449 517 35,000  Climbing Albuquerque Center
01:33PM 32.8431 -112.0122 100° East 451 519 35,000  Level Albuquerque Center
01:34PM 32.8194 -111.8647 101° East 455 524 35,000  Level Albuquerque Center
01:35PM 32.7972 -111.7192 100° East 451 519 35,000  Level Albuquerque Center
01:36PM 32.7742 -111.5742 101° East 450 518 35,000  Level Albuquerque Center
01:37PM 32.7522 -111.4286 100° East 449 517 35,000  Level Albuquerque Center
01:38PM 32.7292 -111.2844 101° East 447 514 35,000  Level Albuquerque Center
01:39PM 32.7000 -111.1117 101° East 447 514 35,000  Level Albuquerque Center
01:40PM 32.6772 -110.9678 101° East 447 514 35,000  Level Albuquerque Center
01:41PM 32.6531 -110.8242 101° East 446 513 35,000  Level Albuquerque Center
01:42PM 32.6292 -110.6825 101° East 443 510 35,000  Level Albuquerque Center
01:43PM 32.6058 -110.5389 101° East 444 511 35,000  Level Albuquerque Center
01:45PM 32.5836 -110.3969 100° East 441 507 35,000  Level Albuquerque Center
01:46PM 32.5544 -110.2256 101° East 442 509 35,000  Level Albuquerque Center
01:47PM 32.5292 -110.0842 102° East 441 507 35,000  Level Albuquerque Center
01:48PM 32.5053 -109.9414 101° East 443 510 35,000  Level Albuquerque Center
01:49PM 32.4828 -109.7992 101° East 442 509 35,000 -60 Level Albuquerque Center
01:50PM 32.4567 -109.6569 102° East 443 510 34,900 -60 Descending Albuquerque Center
01:51PM 32.4264 -109.5153 104° East 444 511 34,900  Level Albuquerque Center
01:52PM 32.3928 -109.3442 103° East 446 513 35,000  Climbing Albuquerque Center
01:53PM 32.3683 -109.2025 102° East 444 511 35,000  Level Albuquerque Center
01:54PM 32.3433 -109.0597 102° East 444 511 35,000  Level Albuquerque Center
01:55PM 32.3175 -108.9169 102° East 445 512 35,000  Level Albuquerque Center
01:56PM 32.2931 -108.7739 101° East 445 512 35,000  Level Albuquerque Center
01:57PM 32.2700 -108.6328 101° East 442 509 35,000  Level Albuquerque Center
01:58PM 32.2436 -108.4908 102° East 442 509 35,000 -60 Level Albuquerque Center
01:59PM 32.2144 -108.3244 102° East 436 502 34,900 -60 Descending Albuquerque Center
02:00PM 32.1883 -108.1831 102° East 440 506 34,900  Level Albuquerque Center
02:01PM 32.1614 -108.0439 103° East 439 505 34,900  Level Albuquerque Center
02:02PM 32.1347 -107.9031 103° East 441 507 34,900 360 Level Albuquerque Center
02:03PM 32.1075 -107.7625 103° East 443 510 35,700 840 Climbing Albuquerque Center
02:04PM 32.0814 -107.6244 103° East 437 503 36,700 540 Climbing Albuquerque Center
02:05PM 32.0500 -107.4617 103° East 430 495 36,900 120 Climbing Albuquerque Center
02:06PM 32.0228 -107.3219 103° East 436 502 37,000  Climbing Albuquerque Center
02:07PM 31.9964 -107.1819 102° East 440 506 37,000  Level Albuquerque Center
02:08PM 31.9692 -107.0450 103° East 437 503 37,000  Level Albuquerque Center
02:09PM 31.9428 -106.9053 103° East 438 504 37,000  Level Albuquerque Center
02:10PM 31.9158 -106.7700 103° East 430 495 37,000 -60 Level Albuquerque Center
02:11PM 31.8817 -106.6061 104° East 432 497 36,900 -60 Descending Albuquerque Center
02:12PM 31.8553 -106.4703 103° East 437 503 36,900  Level Albuquerque Center
02:13PM 31.8286 -106.3331 103° East 434 499 36,900  Level Albuquerque Center
02:14PM 31.7969 -106.1967 105° East 444 511 37,000  Climbing Albuquerque Center
02:15PM 31.7619 -106.0644 107° East 426 490 37,000 -60 Level Albuquerque Center
02:16PM 31.7286 -105.9317 106° East 424 488 36,900 -60 Descending Albuquerque Center
02:17PM 31.6953 -105.7986 106° East 425 489 36,900  Level Albuquerque Center
02:18PM 31.6556 -105.6386 106° East 425 489 37,000  Climbing Albuquerque Center
02:19PM 31.6208 -105.5061 107° East 425 489 37,000  Level Albuquerque Center
02:21PM 31.5892 -105.3719 105° East 425 489 37,000  Level Albuquerque Center
02:22PM 31.5547 -105.2392 107° East 425 489 37,000 -60 Level Albuquerque Center
02:23PM 31.5217 -105.1056 106° East 426 490 36,900 -60 Descending Albuquerque Center
02:24PM 31.4864 -104.9744 107° East 422 486 36,900  Level Albuquerque Center
02:25PM 31.4528 -104.8428 107° East 419 482 37,000  Climbing Albuquerque Center
02:26PM 31.4186 -104.7092 107° East 424 488 37,000  Level Albuquerque Center
02:27PM 31.3842 -104.5783 107° East 421 484 37,000 -60 Level Albuquerque Center
02:28PM 31.3425 -104.4225 107° East 419 482 36,900 -60 Descending Albuquerque Center
02:29PM 31.3083 -104.2917 107° East 419 482 36,900  Level Albuquerque Center
02:30PM 31.2733 -104.1603 107° East 422 486 37,000  Climbing Albuquerque Center
02:31PM 31.2367 -104.0281 108° East 425 489 37,000 -60 Level Albuquerque Center
02:32PM 31.2025 -103.8975 107° East 423 487 36,900 -60 Descending Albuquerque Center
02:33PM 31.1672 -103.7656 107° East 424 488 36,900  Level Albuquerque Center
02:34PM 31.1303 -103.6314 108° East 431 496 37,000  Climbing Albuquerque Center
02:35PM 31.0908 -103.4878 108° East 432 497 37,000  Level Albuquerque Center
02:36PM 31.0578 -103.3628 107° East 433 498 37,000  Level Albuquerque Center
02:37PM 31.0136 -103.2036 108° East 432 497 37,000  Level Albuquerque Center
02:38PM 30.9828 -103.0897 107° East 429 494 37,000  Level Albuquerque Center
02:39PM 30.9386 -102.9331 108° East 427 491 37,000  Level Albuquerque Center
02:40PM 30.9039 -102.8017 107° East 426 490 37,000  Level Albuquerque Center
02:41PM 30.8689 -102.6692 107° East 428 493 37,000  Level Albuquerque Center
02:42PM 30.8322 -102.5358 108° East 433 498 37,000  Level Albuquerque Center
02:43PM 30.7958 -102.4033 108° East 433 498 37,000  Level Albuquerque Center
02:44PM 30.7536 -102.2536 108° East 435 501 37,000 -60 Level Houston Center
02:45PM 30.7172 -102.1211 108° East 434 499 36,900  Descending Houston Center
02:46PM 30.6806 -101.9867 108° East 438 504 37,000  Climbing Houston Center
02:47PM 30.6444 -101.8547 108° East 435 501 37,000 -60 Level Houston Center
02:48PM 30.6078 -101.7219 108° East 434 499 36,900  Descending Houston Center
02:49PM 30.5667 -101.5781 108° East 432 497 37,000  Climbing Houston Center
02:50PM 30.5294 -101.4461 108° East 431 496 37,000 -60 Level Houston Center
02:51PM 30.4933 -101.3142 108° East 430 495 36,900  Descending Houston Center
02:52PM 30.4547 -101.1842 109° East 428 493 37,000  Climbing Houston Center
02:53PM 30.4186 -101.0539 108° East 426 490 37,000 -60 Level Houston Center
02:54PM 30.3739 -100.9003 109° East 421 484 36,900 -60 Descending Houston Center
02:55PM 30.3364 -100.7725 109° East 419 482 36,900  Level Houston Center
02:56PM 30.3006 -100.6444 108° East 419 482 36,900  Level Houston Center
02:57PM 30.2631 -100.5153 109° East 421 484 37,000  Climbing Houston Center
02:59PM 30.2319 -100.3856 105° East 417 480 36,900 -60 Descending Houston Center
03:00PM 30.2119 -100.2506 100° East 419 482 36,900  Level Houston Center
03:01PM 30.1881 -100.1139 101° East 425 489 37,000  Climbing Houston Center
03:02PM 30.1636 -99.9811 102° East 420 483 37,000  Level Houston Center
03:03PM 30.1403 -99.8492 102° East 419 482 37,000  Level Houston Center
03:04PM 30.1133 -99.6914 101° East 417 480 37,000  Level Houston Center
03:05PM 30.0900 -99.5619 102° East 413 475 37,000 -60 Level Houston Center
03:06PM 30.0664 -99.4325 102° East 412 474 36,900 -60 Descending Houston Center
03:07PM 30.0436 -99.3044 102° East 409 471 36,900  Level Houston Center
03:08PM 30.0211 -99.1739 101° East 413 475 37,000  Climbing Houston Center
03:09PM 29.9944 -99.0244 102° East 411 473 37,000  Level Houston Center
03:10PM 29.9703 -98.8953 102° East 413 475 37,000  Level Houston Center
03:11PM 29.9453 -98.7558 102° East 412 474 37,000  Level Houston Center
03:12PM 29.9214 -98.6267 102° East 413 475 37,000  Level Houston Center
03:13PM 29.8972 -98.4969 102° East 413 475 37,000  Level Houston Center
03:14PM 29.8711 -98.3575 102° East 407 468 37,000  Level Houston Center
03:15PM 29.8469 -98.2264 102° East 416 479 37,000  Level Houston Center
03:16PM 29.8219 -98.0947 102° East 419 482 37,000  Level Houston Center
03:17PM 29.7950 -97.9547 102° East 417 480 37,000  Level Houston Center
03:18PM 29.7703 -97.8275 103° East 420 483 37,000 -240 Level Houston Center
03:19PM 29.7517 -97.6972 99° East 415 478 36,600 -1,620 Descending Houston Center
03:20PM 29.7347 -97.5667 98° East 414 476 33,700 -2,520 Descending Houston Center
03:21PM 29.7169 -97.4314 99° East 424 488 31,500 -2,100 Descending Houston Center
03:22PM 29.6986 -97.2914 99° East 440 506 29,400 -2,040 Descending Houston Center
03:23PM 29.6806 -97.1517 98° East 441 507 27,300 -2,340 Descending Houston Center
03:24PM 29.6586 -96.9883 99° East 429 494 24,600 -2,280 Descending Houston Center
03:25PM 29.6408 -96.8600 99° East 408 470 22,600 -1,920 Descending Houston Center
03:26PM 29.6247 -96.7367 99° East 390 449 20,700 -1,860 Descending Houston Center
03:27PM 29.6067 -96.6183 100° East 373 429 18,900 -1,920 Descending Houston Center
03:28PM 29.5919 -96.5022 98° East 368 423 16,800 -2,040 Descending Houston Center
03:29PM 29.5742 -96.3794 99° East 359 413 14,800 -2,040 Descending Houston Center
03:30PM 29.5608 -96.2706 98° East 347 399 12,800 -1,380 Descending Houston Center
03:31PM 29.5536 -96.1633 94° East 333 383 12,000 -420 Descending Houston Center
03:32PM 29.5939 -96.0700 64° Northeast 339 390 12,000  Level Houston Center
03:34PM 29.6400 -95.9789 60° Northeast 331 381 12,000 -60 Level Houston Center
03:35PM 29.6864 -95.8867 60° Northeast 331 381 11,900 -780 Descending Houston Center
03:36PM 29.7319 -95.7978 59° Northeast 325 374 10,500 -2,160 Descending Houston Center
03:37PM 29.7800 -95.7044 59° Northeast 283 326 7,500 -2,220 Descending Houston Center
03:38PM 29.8081 -95.6167 70° East 290 334 6,000 -780 Descending Houston Center
03:39PM 29.8281 -95.5325 75° East 278 320 6,000  Level Houston Center
03:40PM 29.8367 -95.4453 83° East 287 330 6,000  Level Houston Center
03:41PM 29.8542 -95.3397 79° East 279 321 6,000  Level Houston Center
03:42PM 29.8703 -95.2631 76° East 267 307 6,000 -420 Level Houston Center
03:43PM 29.8878 -95.1789 76° East 270 311 5,200 -1,500 Descending Houston Center
03:44PM 29.9381 -95.1342 38° Northeast 247 284 3,000 -2,220 Descending Houston Center